sensor_id;sensor_type;location;lat;lon;timestamp;temperature;humidity
70593;DHT22;58294;42.988;20.338;2023-06-22T00:31:13;486.90;2124.80
70593;DHT22;58294;42.988;20.338;2023-06-22T00:33:39;486.80;2329.60
70593;DHT22;58294;42.988;20.338;2023-06-22T00:36:05;486.70;2380.80
70593;DHT22;58294;42.988;20.338;2023-06-22T00:38:33;486.60;2380.80
70593;DHT22;58294;42.988;20.338;2023-06-22T00:40:59;486.60;2380.80
70593;DHT22;58294;42.988;20.338;2023-06-22T00:43:25;486.50;2380.80
70593;DHT22;58294;42.988;20.338;2023-06-22T00:45:51;486.50;2380.80
70593;DHT22;58294;42.988;20.338;2023-06-22T00:48:17;486.50;2380.80
70593;DHT22;58294;42.988;20.338;2023-06-22T00:50:43;486.50;2380.80
70593;DHT22;58294;42.988;20.338;2023-06-22T00:53:09;486.40;2380.80
70593;DHT22;58294;42.988;20.338;2023-06-22T00:55:37;486.40;2380.80
70593;DHT22;58294;42.988;20.338;2023-06-22T00:58:05;461.70;2380.80
70593;DHT22;58294;42.988;20.338;2023-06-22T01:00:33;486.40;2380.80
70593;DHT22;58294;42.988;20.338;2023-06-22T01:02:59;461.60;2380.80
70593;DHT22;58294;42.988;20.338;2023-06-22T01:05:25;461.60;2380.80
70593;DHT22;58294;42.988;20.338;2023-06-22T01:08:16;461.60;2380.80
70593;DHT22;58294;42.988;20.338;2023-06-22T01:10:55;461.60;2380.80
70593;DHT22;58294;42.988;20.338;2023-06-22T01:16:30;461.50;2380.80
70593;DHT22;58294;42.988;20.338;2023-06-22T01:19:01;461.50;2380.80
70593;DHT22;58294;42.988;20.338;2023-06-22T01:21:33;461.50;2380.80
70593;DHT22;58294;42.988;20.338;2023-06-22T01:29:20;461.50;2380.80
70593;DHT22;58294;42.988;20.338;2023-06-22T01:31:48;461.50;2380.80
70593;DHT22;58294;42.988;20.338;2023-06-22T01:34:15;461.50;2380.80
70593;DHT22;58294;42.988;20.338;2023-06-22T01:36:42;461.50;2380.80
70593;DHT22;58294;42.988;20.338;2023-06-22T01:39:09;461.50;2380.80
70593;DHT22;58294;42.988;20.338;2023-06-22T01:41:37;461.50;2380.80
70593;DHT22;58294;42.988;20.338;2023-06-22T01:44:05;461.40;2380.80
70593;DHT22;58294;42.988;20.338;2023-06-22T01:46:34;461.50;2380.80
70593;DHT22;58294;42.988;20.338;2023-06-22T01:49:02;461.30;2380.80
70593;DHT22;58294;42.988;20.338;2023-06-22T01:51:28;461.30;2380.80
70593;DHT22;58294;42.988;20.338;2023-06-22T01:53:54;461.30;2380.80
70593;DHT22;58294;42.988;20.338;2023-06-22T01:56:20;461.30;2380.80
70593;DHT22;58294;42.988;20.338;2023-06-22T01:58:52;461.30;2380.80
70593;DHT22;58294;42.988;20.338;2023-06-22T02:01:35;461.20;2380.80
70593;DHT22;58294;42.988;20.338;2023-06-22T02:04:08;461.20;2380.80
70593;DHT22;58294;42.988;20.338;2023-06-22T02:06:38;461.20;2380.80
70593;DHT22;58294;42.988;20.338;2023-06-22T02:09:11;461.20;2380.80
70593;DHT22;58294;42.988;20.338;2023-06-22T02:11:40;461.20;2380.80
70593;DHT22;58294;42.988;20.338;2023-06-22T02:14:07;461.10;2380.80
70593;DHT22;58294;42.988;20.338;2023-06-22T02:16:33;461.00;2380.80
70593;DHT22;58294;42.988;20.338;2023-06-22T02:19:02;461.00;2380.80
70593;DHT22;58294;42.988;20.338;2023-06-22T02:21:31;460.90;2380.80
70593;DHT22;58294;42.988;20.338;2023-06-22T02:23:58;460.90;2380.80
70593;DHT22;58294;42.988;20.338;2023-06-22T02:26:25;460.90;2380.80
70593;DHT22;58294;42.988;20.338;2023-06-22T04:11:34;460.90;2380.80
70593;DHT22;58294;42.988;20.338;2023-06-22T04:14:00;460.80;2380.80
70593;DHT22;58294;42.988;20.338;2023-06-22T04:16:26;460.80;2380.80
70593;DHT22;58294;42.988;20.338;2023-06-22T04:18:52;460.80;2380.80
70593;DHT22;58294;42.988;20.338;2023-06-22T04:23:45;461.10;2380.80
70593;DHT22;58294;42.988;20.338;2023-06-22T04:26:12;460.90;2380.80
70593;DHT22;58294;42.988;20.338;2023-06-22T04:28:39;461.00;2380.80
70593;DHT22;58294;42.988;20.338;2023-06-22T04:31:05;461.00;2380.80
70593;DHT22;58294;42.988;20.338;2023-06-22T04:33:31;461.10;2380.80
70593;DHT22;58294;42.988;20.338;2023-06-22T04:38:24;461.40;2380.80
70593;DHT22;58294;42.988;20.338;2023-06-22T04:40:50;461.30;2380.80
70593;DHT22;58294;42.988;20.338;2023-06-22T04:43:16;461.40;2380.80
70593;DHT22;58294;42.988;20.338;2023-06-22T04:45:42;461.50;2380.80
70593;DHT22;58294;42.988;20.338;2023-06-22T04:48:08;461.50;2380.80
70593;DHT22;58294;42.988;20.338;2023-06-22T05:10:19;486.60;2380.80
70593;DHT22;58294;42.988;20.338;2023-06-22T05:17:39;486.80;2380.80
70593;DHT22;58294;42.988;20.338;2023-06-22T05:20:11;486.70;2380.80
70593;DHT22;58294;42.988;20.338;2023-06-22T05:22:38;486.70;2380.80
70593;DHT22;58294;42.988;20.338;2023-06-22T05:25:09;486.80;2380.80
70593;DHT22;58294;42.988;20.338;2023-06-22T05:27:35;486.80;2380.80
70593;DHT22;58294;42.988;20.338;2023-06-22T05:30:08;486.90;2380.80
70593;DHT22;58294;42.988;20.338;2023-06-22T05:35:01;487.20;2380.80
70593;DHT22;58294;42.988;20.338;2023-06-22T05:39:53;512.00;2380.80
70593;DHT22;58294;42.988;20.338;2023-06-22T05:47:13;512.20;2380.80
70593;DHT22;58294;42.988;20.338;2023-06-22T05:52:05;512.40;2380.80
70593;DHT22;58294;42.988;20.338;2023-06-22T05:54:31;512.30;2380.80
70593;DHT22;58294;42.988;20.338;2023-06-22T05:56:57;512.30;2380.80
70593;DHT22;58294;42.988;20.338;2023-06-22T06:04:18;537.60;2406.40
70593;DHT22;58294;42.988;20.338;2023-06-22T06:06:45;537.60;2406.40
70593;DHT22;58294;42.988;20.338;2023-06-22T06:09:15;537.80;2406.40
70593;DHT22;58294;42.988;20.338;2023-06-22T06:11:41;537.70;2406.40
70593;DHT22;58294;42.988;20.338;2023-06-22T06:16:34;537.80;2406.40
70593;DHT22;58294;42.988;20.338;2023-06-22T06:18:59;538.00;2406.40
70593;DHT22;58294;42.988;20.338;2023-06-22T06:21:25;538.10;2406.40
70593;DHT22;58294;42.988;20.338;2023-06-22T06:23:51;538.20;2406.40
70593;DHT22;58294;42.988;20.338;2023-06-22T06:26:18;563.20;2432.00
70593;DHT22;58294;42.988;20.338;2023-06-22T06:28:54;538.50;2406.40
70593;DHT22;58294;42.988;20.338;2023-06-22T06:31:21;563.20;2432.00
70593;DHT22;58294;42.988;20.338;2023-06-22T06:36:16;563.40;2432.00
70593;DHT22;58294;42.988;20.338;2023-06-22T06:38:42;563.50;2432.00
70593;DHT22;58294;42.988;20.338;2023-06-22T06:43:34;563.70;2432.00
70593;DHT22;58294;42.988;20.338;2023-06-22T06:46:00;563.90;2432.00
70593;DHT22;58294;42.988;20.338;2023-06-22T06:48:26;564.00;2432.00
70593;DHT22;58294;42.988;20.338;2023-06-22T06:55:44;588.90;2432.00
70593;DHT22;58294;42.988;20.338;2023-06-22T06:58:11;589.00;2432.00
70593;DHT22;58294;42.988;20.338;2023-06-22T07:20:10;615.10;2432.00
70593;DHT22;58294;42.988;20.338;2023-06-22T07:22:38;614.90;2432.00
70593;DHT22;58294;42.988;20.338;2023-06-22T07:27:38;615.30;2432.00
70593;DHT22;58294;42.988;20.338;2023-06-22T07:30:09;615.20;2432.00
70593;DHT22;58294;42.988;20.338;2023-06-22T07:57:16;666.10;2227.20
70593;DHT22;58294;42.988;20.338;2023-06-22T07:59:42;666.10;2201.60
70593;DHT22;58294;42.988;20.338;2023-06-22T08:02:08;666.50;2406.40
70593;DHT22;58294;42.988;20.338;2023-06-22T08:04:35;666.40;2099.20
70593;DHT22;58294;42.988;20.338;2023-06-22T08:07:01;691.30;2432.00
70593;DHT22;58294;42.988;20.338;2023-06-22T08:11:57;691.50;2329.60
70593;DHT22;58294;42.988;20.338;2023-06-22T08:14:27;691.50;2176.00
70593;DHT22;58294;42.988;20.338;2023-06-22T08:41:27;717.40;1996.80
70593;DHT22;58294;42.988;20.338;2023-06-22T08:46:19;717.50;1920.00
70593;DHT22;58294;42.988;20.338;2023-06-22T08:48:49;717.40;1843.20
70593;DHT22;58294;42.988;20.338;2023-06-22T08:51:16;717.50;1766.40
70593;DHT22;58294;42.988;20.338;2023-06-22T08:53:42;717.50;1689.60
70593;DHT22;58294;42.988;20.338;2023-06-22T08:56:08;717.50;1638.40
70593;DHT22;58294;42.988;20.338;2023-06-22T08:58:34;717.50;1715.20
70593;DHT22;58294;42.988;20.338;2023-06-22T09:01:00;742.40;1561.60
70593;DHT22;58294;42.988;20.338;2023-06-22T09:03:27;717.60;1484.80
70593;DHT22;58294;42.988;20.338;2023-06-22T09:05:53;742.40;1715.20
70593;DHT22;58294;42.988;20.338;2023-06-22T09:08:18;742.40;1587.20
70593;DHT22;58294;42.988;20.338;2023-06-22T09:10:44;742.70;1689.60
70593;DHT22;58294;42.988;20.338;2023-06-22T09:13:10;742.50;1433.60
70593;DHT22;58294;42.988;20.338;2023-06-22T09:15:36;742.50;1484.80
70593;DHT22;58294;42.988;20.338;2023-06-22T09:18:02;742.60;1561.60
70593;DHT22;58294;42.988;20.338;2023-06-22T09:20:27;742.70;1587.20
70593;DHT22;58294;42.988;20.338;2023-06-22T09:22:53;742.90;1536.00
70593;DHT22;58294;42.988;20.338;2023-06-22T09:25:19;743.00;1510.40
70593;DHT22;58294;42.988;20.338;2023-06-22T09:27:47;742.90;1433.60
70593;DHT22;58294;42.988;20.338;2023-06-22T09:30:13;742.90;1510.40
70593;DHT22;58294;42.988;20.338;2023-06-22T09:32:39;742.90;1484.80
70593;DHT22;58294;42.988;20.338;2023-06-22T09:35:05;743.00;1433.60
70593;DHT22;58294;42.988;20.338;2023-06-22T09:39:58;743.30;1459.20
70593;DHT22;58294;42.988;20.338;2023-06-22T09:42:24;743.20;1331.20
70593;DHT22;58294;42.988;20.338;2023-06-22T09:49:42;768.10;1536.00
70593;DHT22;58294;42.988;20.338;2023-06-22T09:52:07;768.00;1280.00
70593;DHT22;58294;42.988;20.338;2023-06-22T09:54:33;743.30;1305.60
70593;DHT22;58294;42.988;20.338;2023-06-22T09:56:59;768.00;1305.60
70593;DHT22;58294;42.988;20.338;2023-06-22T09:59:25;768.00;1254.40
70593;DHT22;58294;42.988;20.338;2023-06-22T10:01:50;768.00;1228.80
70593;DHT22;58294;42.988;20.338;2023-06-22T10:04:16;768.20;1408.00
70593;DHT22;58294;42.988;20.338;2023-06-22T10:09:08;768.50;1382.40
70593;DHT22;58294;42.988;20.338;2023-06-22T10:11:34;768.60;1382.40
70593;DHT22;58294;42.988;20.338;2023-06-22T10:14:01;768.70;1459.20
70593;DHT22;58294;42.988;20.338;2023-06-22T10:26:19;793.80;1305.60
70593;DHT22;58294;42.988;20.338;2023-06-22T10:28:44;793.80;1356.80
70593;DHT22;58294;42.988;20.338;2023-06-22T10:31:10;793.80;1280.00
70593;DHT22;58294;42.988;20.338;2023-06-22T10:33:36;794.00;1382.40
70593;DHT22;58294;42.988;20.338;2023-06-22T10:36:02;793.90;1254.40
70593;DHT22;58294;42.988;20.338;2023-06-22T10:40:54;794.50;1792.00
70593;DHT22;58294;42.988;20.338;2023-06-22T10:43:19;845.00;1920.00
70593;DHT22;58294;42.988;20.338;2023-06-22T10:45:45;871.10;2380.80
70593;DHT22;58294;42.988;20.338;2023-06-22T10:48:11;896.90;1561.60
70593;DHT22;58294;42.988;20.338;2023-06-22T10:55:29;998.70;1152.00
70593;DHT22;58294;42.988;20.338;2023-06-22T10:57:55;1024.10;1203.20
70593;DHT22;58294;42.988;20.338;2023-06-22T11:00:21;1050.00;1228.80
70593;DHT22;58294;42.988;20.338;2023-06-22T11:02:46;1075.30;1049.60
70593;DHT22;58294;42.988;20.338;2023-06-22T11:12:36;1100.90;844.80
70593;DHT22;58294;42.988;20.338;2023-06-22T11:15:02;1076.00;870.40
70593;DHT22;58294;42.988;20.338;2023-06-22T11:17:28;1100.90;793.60
70593;DHT22;58294;42.988;20.338;2023-06-22T11:19:53;1075.70;768.00
70593;DHT22;58294;42.988;20.338;2023-06-22T11:22:19;1075.40;793.60
70593;DHT22;58294;42.988;20.338;2023-06-22T11:24:45;1100.90;819.20
70593;DHT22;58294;42.988;20.338;2023-06-22T11:29:37;1075.50;640.00
70593;DHT22;58294;42.988;20.338;2023-06-22T11:32:06;1050.00;742.40
70593;DHT22;58294;42.988;20.338;2023-06-22T11:34:32;1075.40;793.60
70593;DHT22;58294;42.988;20.338;2023-06-22T11:39:24;1101.10;768.00
70593;DHT22;58294;42.988;20.338;2023-06-22T11:41:50;1101.70;716.80
70593;DHT22;58294;42.988;20.338;2023-06-22T11:44:16;1126.50;691.20
70593;DHT22;58294;42.988;20.338;2023-06-22T11:51:34;1127.20;691.20
70593;DHT22;58294;42.988;20.338;2023-06-22T11:54:00;1152.00;614.40
70593;DHT22;58294;42.988;20.338;2023-06-22T11:56:26;1126.60;614.40
70593;DHT22;58294;42.988;20.338;2023-06-22T11:58:53;1101.30;640.00
70593;DHT22;58294;42.988;20.338;2023-06-22T12:01:19;1101.10;614.40
70593;DHT22;58294;42.988;20.338;2023-06-22T12:03:45;1075.80;665.60
70593;DHT22;58294;42.988;20.338;2023-06-22T12:06:11;1050.50;691.20
70593;DHT22;58294;42.988;20.338;2023-06-22T12:08:37;1075.40;819.20
70593;DHT22;58294;42.988;20.338;2023-06-22T12:11:03;1075.90;691.20
70593;DHT22;58294;42.988;20.338;2023-06-22T12:13:29;1100.80;691.20
70593;DHT22;58294;42.988;20.338;2023-06-22T12:15:54;1101.20;716.80
70593;DHT22;58294;42.988;20.338;2023-06-22T12:18:20;1101.40;665.60
70593;DHT22;58294;42.988;20.338;2023-06-22T12:23:14;1126.40;640.00
70593;DHT22;58294;42.988;20.338;2023-06-22T12:25:40;1126.40;640.00
70593;DHT22;58294;42.988;20.338;2023-06-22T12:28:05;1126.40;640.00
70593;DHT22;58294;42.988;20.338;2023-06-22T12:30:33;1126.40;640.00
70593;DHT22;58294;42.988;20.338;2023-06-22T12:32:59;1126.70;665.60
70593;DHT22;58294;42.988;20.338;2023-06-22T12:35:24;1126.70;614.40
70593;DHT22;58294;42.988;20.338;2023-06-22T12:37:50;1126.90;614.40
70593;DHT22;58294;42.988;20.338;2023-06-22T12:40:16;1126.80;640.00
70593;DHT22;58294;42.988;20.338;2023-06-22T12:42:42;1127.10;588.80
70593;DHT22;58294;42.988;20.338;2023-06-22T12:45:08;1126.70;614.40
70593;DHT22;58294;42.988;20.338;2023-06-22T12:47:34;1127.00;640.00
70593;DHT22;58294;42.988;20.338;2023-06-22T12:50:00;1126.90;614.40
70593;DHT22;58294;42.988;20.338;2023-06-22T12:52:26;1127.20;588.80
70593;DHT22;58294;42.988;20.338;2023-06-22T12:54:52;1127.20;563.20
70593;DHT22;58294;42.988;20.338;2023-06-22T12:57:18;1127.20;588.80
70593;DHT22;58294;42.988;20.338;2023-06-22T12:59:45;1127.10;588.80
70593;DHT22;58294;42.988;20.338;2023-06-22T13:02:11;1127.20;614.40
70593;DHT22;58294;42.988;20.338;2023-06-22T13:09:29;1152.50;563.20
70593;DHT22;58294;42.988;20.338;2023-06-22T13:11:55;1152.20;563.20
70593;DHT22;58294;42.988;20.338;2023-06-22T13:16:47;1152.20;537.60
70593;DHT22;58294;42.988;20.338;2023-06-22T13:19:12;1127.20;588.80
70593;DHT22;58294;42.988;20.338;2023-06-22T13:21:38;1127.20;563.20
70593;DHT22;58294;42.988;20.338;2023-06-22T13:24:04;1126.80;563.20
70593;DHT22;58294;42.988;20.338;2023-06-22T13:26:31;1126.90;563.20
70593;DHT22;58294;42.988;20.338;2023-06-22T13:28:58;1126.70;563.20
70593;DHT22;58294;42.988;20.338;2023-06-22T13:31:23;1126.40;512.00
70593;DHT22;58294;42.988;20.338;2023-06-22T13:36:18;1075.70;512.00
70593;DHT22;58294;42.988;20.338;2023-06-22T13:38:43;1049.60;537.60
70593;DHT22;58294;42.988;20.338;2023-06-22T13:41:09;1024.00;563.20
70593;DHT22;58294;42.988;20.338;2023-06-22T13:43:35;998.70;614.40
70593;DHT22;58294;42.988;20.338;2023-06-22T13:46:01;973.70;614.40
70593;DHT22;58294;42.988;20.338;2023-06-22T13:48:27;973.20;640.00
70593;DHT22;58294;42.988;20.338;2023-06-22T13:50:54;972.80;640.00
70593;DHT22;58294;42.988;20.338;2023-06-22T13:53:20;947.80;640.00
70593;DHT22;58294;42.988;20.338;2023-06-22T13:55:45;947.30;640.00
70593;DHT22;58294;42.988;20.338;2023-06-22T13:58:13;922.40;691.20
70593;DHT22;58294;42.988;20.338;2023-06-22T14:03:05;922.00;716.80
70593;DHT22;58294;42.988;20.338;2023-06-22T14:05:31;921.60;716.80
70593;DHT22;58294;42.988;20.338;2023-06-22T14:07:56;896.60;691.20
70593;DHT22;58294;42.988;20.338;2023-06-22T14:10:22;896.10;742.40
70593;DHT22;58294;42.988;20.338;2023-06-22T14:12:48;871.30;742.40
70593;DHT22;58294;42.988;20.338;2023-06-22T14:15:14;871.10;768.00
70593;DHT22;58294;42.988;20.338;2023-06-22T14:17:40;871.00;768.00
70593;DHT22;58294;42.988;20.338;2023-06-22T14:20:06;870.80;793.60
70593;DHT22;58294;42.988;20.338;2023-06-22T14:22:33;870.80;819.20
70593;DHT22;58294;42.988;20.338;2023-06-22T14:25:00;870.70;819.20
70593;DHT22;58294;42.988;20.338;2023-06-22T14:27:27;870.60;844.80
70593;DHT22;58294;42.988;20.338;2023-06-22T14:29:52;870.40;844.80
70593;DHT22;58294;42.988;20.338;2023-06-22T14:32:18;845.60;870.40
70593;DHT22;58294;42.988;20.338;2023-06-22T14:34:44;845.50;870.40
70593;DHT22;58294;42.988;20.338;2023-06-22T14:37:10;845.50;844.80
70593;DHT22;58294;42.988;20.338;2023-06-22T14:39:36;845.50;870.40
70593;DHT22;58294;42.988;20.338;2023-06-22T14:42:02;845.40;870.40
70593;DHT22;58294;42.988;20.338;2023-06-22T14:44:31;845.40;870.40
70593;DHT22;58294;42.988;20.338;2023-06-22T14:46:57;845.30;870.40
70593;DHT22;58294;42.988;20.338;2023-06-22T14:49:23;845.20;896.00
70593;DHT22;58294;42.988;20.338;2023-06-22T14:51:49;845.20;896.00
70593;DHT22;58294;42.988;20.338;2023-06-22T14:54:15;845.20;896.00
70593;DHT22;58294;42.988;20.338;2023-06-22T14:56:41;845.10;896.00
70593;DHT22;58294;42.988;20.338;2023-06-22T14:59:07;845.00;896.00
70593;DHT22;58294;42.988;20.338;2023-06-22T15:01:34;844.90;921.60
70593;DHT22;58294;42.988;20.338;2023-06-22T15:04:00;844.80;921.60
70593;DHT22;58294;42.988;20.338;2023-06-22T15:06:26;844.80;921.60
70593;DHT22;58294;42.988;20.338;2023-06-22T15:08:52;844.80;921.60
70593;DHT22;58294;42.988;20.338;2023-06-22T15:11:18;820.10;921.60
70593;DHT22;58294;42.988;20.338;2023-06-22T15:13:44;820.10;921.60
70593;DHT22;58294;42.988;20.338;2023-06-22T15:16:10;820.10;921.60
70593;DHT22;58294;42.988;20.338;2023-06-22T15:18:36;819.90;947.20
70593;DHT22;58294;42.988;20.338;2023-06-22T15:21:03;819.90;947.20
70593;DHT22;58294;42.988;20.338;2023-06-22T15:23:30;819.90;921.60
70593;DHT22;58294;42.988;20.338;2023-06-22T15:25:57;819.70;947.20
70593;DHT22;58294;42.988;20.338;2023-06-22T15:28:23;819.90;947.20
70593;DHT22;58294;42.988;20.338;2023-06-22T15:30:49;819.70;947.20
70593;DHT22;58294;42.988;20.338;2023-06-22T15:33:17;819.60;998.40
70593;DHT22;58294;42.988;20.338;2023-06-22T15:35:43;819.70;972.80
70593;DHT22;58294;42.988;20.338;2023-06-22T15:38:10;819.70;972.80
70593;DHT22;58294;42.988;20.338;2023-06-22T15:40:35;819.60;998.40
70593;DHT22;58294;42.988;20.338;2023-06-22T15:43:02;819.60;972.80
70593;DHT22;58294;42.988;20.338;2023-06-22T15:45:28;819.60;972.80
70593;DHT22;58294;42.988;20.338;2023-06-22T15:47:54;819.60;998.40
70593;DHT22;58294;42.988;20.338;2023-06-22T15:50:20;819.40;972.80
70593;DHT22;58294;42.988;20.338;2023-06-22T15:52:46;819.40;972.80
70593;DHT22;58294;42.988;20.338;2023-06-22T15:55:16;819.40;998.40
70593;DHT22;58294;42.988;20.338;2023-06-22T15:57:42;819.40;947.20
70593;DHT22;58294;42.988;20.338;2023-06-22T16:00:14;819.30;998.40
70593;DHT22;58294;42.988;20.338;2023-06-22T16:02:40;819.20;1024.00
70593;DHT22;58294;42.988;20.338;2023-06-22T16:05:06;819.20;1024.00
70593;DHT22;58294;42.988;20.338;2023-06-22T16:07:32;819.30;972.80
70593;DHT22;58294;42.988;20.338;2023-06-22T16:09:58;819.20;972.80
70593;DHT22;58294;42.988;20.338;2023-06-22T16:12:24;794.40;998.40
70593;DHT22;58294;42.988;20.338;2023-06-22T16:14:52;794.40;998.40
70593;DHT22;58294;42.988;20.338;2023-06-22T17:08:45;793.90;1075.20
70593;DHT22;58294;42.988;20.338;2023-06-22T17:11:13;793.80;1075.20
70593;DHT22;58294;42.988;20.338;2023-06-22T17:13:39;793.70;1126.40
70593;DHT22;58294;42.988;20.338;2023-06-22T17:16:05;793.60;1177.60
70593;DHT22;58294;42.988;20.338;2023-06-22T17:18:35;793.60;1152.00
70593;DHT22;58294;42.988;20.338;2023-06-22T17:21:01;793.60;1177.60
70593;DHT22;58294;42.988;20.338;2023-06-22T17:23:27;793.60;1177.60
70593;DHT22;58294;42.988;20.338;2023-06-22T17:25:55;768.80;1177.60
70593;DHT22;58294;42.988;20.338;2023-06-22T17:28:22;793.60;1177.60
70593;DHT22;58294;42.988;20.338;2023-06-22T17:31:10;768.80;1177.60
70593;DHT22;58294;42.988;20.338;2023-06-22T17:36:02;768.50;1100.80
70593;DHT22;58294;42.988;20.338;2023-06-22T17:38:28;768.40;1254.40
70593;DHT22;58294;42.988;20.338;2023-06-22T17:41:00;768.20;1280.00
70593;DHT22;58294;42.988;20.338;2023-06-22T17:43:27;768.10;1254.40
70593;DHT22;58294;42.988;20.338;2023-06-22T17:45:57;768.00;1305.60
70593;DHT22;58294;42.988;20.338;2023-06-22T17:48:23;743.20;1280.00
70593;DHT22;58294;42.988;20.338;2023-06-22T17:50:50;743.10;1331.20
70593;DHT22;58294;42.988;20.338;2023-06-22T17:53:16;743.10;1280.00
70593;DHT22;58294;42.988;20.338;2023-06-22T17:55:42;742.90;1331.20
70593;DHT22;58294;42.988;20.338;2023-06-22T17:58:08;742.80;1356.80
70593;DHT22;58294;42.988;20.338;2023-06-22T18:00:35;742.70;1280.00
70593;DHT22;58294;42.988;20.338;2023-06-22T18:03:02;742.60;1382.40
70593;DHT22;58294;42.988;20.338;2023-06-22T18:05:35;742.50;1356.80
70593;DHT22;58294;42.988;20.338;2023-06-22T18:08:03;742.40;1382.40
70593;DHT22;58294;42.988;20.338;2023-06-22T18:10:32;717.70;1254.40
70593;DHT22;58294;42.988;20.338;2023-06-22T18:12:59;717.60;1280.00
70593;DHT22;58294;42.988;20.338;2023-06-22T18:15:26;717.50;1305.60
70593;DHT22;58294;42.988;20.338;2023-06-22T18:17:52;717.30;1305.60
70593;DHT22;58294;42.988;20.338;2023-06-22T18:20:19;717.20;1459.20
70593;DHT22;58294;42.988;20.338;2023-06-22T18:22:49;717.10;1459.20
70593;DHT22;58294;42.988;20.338;2023-06-22T18:25:15;716.90;1433.60
70593;DHT22;58294;42.988;20.338;2023-06-22T18:27:46;716.90;1459.20
70593;DHT22;58294;42.988;20.338;2023-06-22T18:30:14;716.80;1536.00
70593;DHT22;58294;42.988;20.338;2023-06-22T18:32:41;692.10;1408.00
70593;DHT22;58294;42.988;20.338;2023-06-22T18:35:08;691.90;1510.40
70593;DHT22;58294;42.988;20.338;2023-06-22T18:37:35;691.90;1536.00
70593;DHT22;58294;42.988;20.338;2023-06-22T18:40:02;691.80;1561.60
70593;DHT22;58294;42.988;20.338;2023-06-22T18:50:04;691.70;1433.60
70593;DHT22;58294;42.988;20.338;2023-06-22T18:52:30;691.50;1484.80
70593;DHT22;58294;42.988;20.338;2023-06-22T18:57:28;691.40;1484.80
70593;DHT22;58294;42.988;20.338;2023-06-22T19:10:47;666.30;1587.20
70593;DHT22;58294;42.988;20.338;2023-06-22T19:15:43;666.00;1638.40
70593;DHT22;58294;42.988;20.338;2023-06-22T19:33:21;665.80;1510.40
70593;DHT22;58294;42.988;20.338;2023-06-22T19:35:47;640.80;1638.40
70593;DHT22;58294;42.988;20.338;2023-06-22T19:38:17;640.80;1484.80
70593;DHT22;58294;42.988;20.338;2023-06-22T19:40:46;640.60;1664.00
70593;DHT22;58294;42.988;20.338;2023-06-22T19:43:13;640.70;1664.00
70593;DHT22;58294;42.988;20.338;2023-06-22T19:45:41;640.30;1715.20
70593;DHT22;58294;42.988;20.338;2023-06-22T19:48:15;640.40;1664.00
70593;DHT22;58294;42.988;20.338;2023-06-22T19:50:42;640.30;1689.60
70593;DHT22;58294;42.988;20.338;2023-06-22T19:53:12;640.20;1766.40
70593;DHT22;58294;42.988;20.338;2023-06-22T19:55:43;640.10;1817.60
70593;DHT22;58294;42.988;20.338;2023-06-22T19:58:10;640.10;1766.40
70593;DHT22;58294;42.988;20.338;2023-06-22T20:00:37;640.00;1792.00
70593;DHT22;58294;42.988;20.338;2023-06-22T20:03:10;640.00;1843.20
70593;DHT22;58294;42.988;20.338;2023-06-22T20:05:41;615.20;1868.80
70593;DHT22;58294;42.988;20.338;2023-06-22T20:08:11;615.20;1817.60
70593;DHT22;58294;42.988;20.338;2023-06-22T20:10:37;615.10;1868.80
70593;DHT22;58294;42.988;20.338;2023-06-22T20:13:19;615.10;1894.40
70593;DHT22;58294;42.988;20.338;2023-06-22T20:20:46;615.10;1689.60
70593;DHT22;58294;42.988;20.338;2023-06-22T20:23:18;615.00;1868.80
70593;DHT22;58294;42.988;20.338;2023-06-22T20:28:14;614.90;1715.20
70593;DHT22;58294;42.988;20.338;2023-06-22T20:30:42;614.80;1920.00
70593;DHT22;58294;42.988;20.338;2023-06-22T20:33:15;614.70;1945.60
70593;DHT22;58294;42.988;20.338;2023-06-22T20:35:42;614.80;1766.40
70593;DHT22;58294;42.988;20.338;2023-06-22T20:38:08;614.50;1996.80
70593;DHT22;58294;42.988;20.338;2023-06-22T20:40:34;614.50;2022.40
70593;DHT22;58294;42.988;20.338;2023-06-22T20:43:01;614.50;2022.40
70593;DHT22;58294;42.988;20.338;2023-06-22T20:45:28;614.40;1996.80
70593;DHT22;58294;42.988;20.338;2023-06-22T20:47:56;614.40;2022.40
70593;DHT22;58294;42.988;20.338;2023-06-22T20:50:26;614.40;2073.60
70593;DHT22;58294;42.988;20.338;2023-06-22T20:52:59;614.40;2022.40
70593;DHT22;58294;42.988;20.338;2023-06-22T20:55:25;589.70;2022.40
70593;DHT22;58294;42.988;20.338;2023-06-22T20:57:52;589.70;2099.20
70593;DHT22;58294;42.988;20.338;2023-06-22T21:00:18;589.60;1971.20
70593;DHT22;58294;42.988;20.338;2023-06-22T21:02:44;589.50;2099.20
70593;DHT22;58294;42.988;20.338;2023-06-22T21:05:10;589.50;2048.00
70593;DHT22;58294;42.988;20.338;2023-06-22T21:07:38;589.40;2022.40
70593;DHT22;58294;42.988;20.338;2023-06-22T21:10:04;589.40;2099.20
70593;DHT22;58294;42.988;20.338;2023-06-22T21:12:30;589.30;2099.20
70593;DHT22;58294;42.988;20.338;2023-06-22T21:14:56;589.20;2073.60
70593;DHT22;58294;42.988;20.338;2023-06-22T21:17:22;589.10;2073.60
70593;DHT22;58294;42.988;20.338;2023-06-22T21:19:48;589.00;2176.00
70593;DHT22;58294;42.988;20.338;2023-06-22T21:22:14;589.00;2227.20
70593;DHT22;58294;42.988;20.338;2023-06-22T21:24:40;588.90;2201.60
70593;DHT22;58294;42.988;20.338;2023-06-22T21:27:06;588.80;2201.60
70593;DHT22;58294;42.988;20.338;2023-06-22T21:29:32;588.80;2176.00
70593;DHT22;58294;42.988;20.338;2023-06-22T21:31:57;564.10;2252.80
70593;DHT22;58294;42.988;20.338;2023-06-22T21:34:24;564.10;2278.40
70593;DHT22;58294;42.988;20.338;2023-06-22T21:36:50;564.10;2278.40
70593;DHT22;58294;42.988;20.338;2023-06-22T21:39:16;564.10;2252.80
70593;DHT22;58294;42.988;20.338;2023-06-22T21:41:42;564.00;2124.80
70593;DHT22;58294;42.988;20.338;2023-06-22T21:44:07;564.00;2304.00
70593;DHT22;58294;42.988;20.338;2023-06-22T21:46:33;563.90;2278.40
70593;DHT22;58294;42.988;20.338;2023-06-22T21:48:59;563.90;2304.00
70593;DHT22;58294;42.988;20.338;2023-06-22T21:51:25;563.90;2304.00